Terminal Aerodrome Forecast
Issued by NWS Duluth, MN

Home | Current Version | Previous Version | Graphics & Text | Print | Product List | Glossary On
Versions: 1 2 3 4 5 6 7 8 9 10 11 12 13 14 15 16 17 18 19 20 21 22 23 24 25 26 27 28 29 30 31 32 33 34 35 36 37 38 39 40 41 42 43 44 45 46
000
FTUS43 KDLH 211800 AAA
TAFDLH
TAF AMD
KDLH 211825Z 2118/2218 08012KT P6SM VCSH BKN006 OVC015
      TEMPO 2118/2121 SCT006 OVC015
     FM212100 08014KT P6SM -SHRA VCTS BKN015CB OVC035
     FM220000 06008KT 5SM -DZ BR OVC008
     FM220600 06006KT 1SM BR OVC006
     FM221500 35006KT 5SM BR OVC008=

USA.gov is the U.S. government's official web portal to all federal, state and local government web resources and services.